sensor_id;sensor_type;location;lat;lon;timestamp;temperature;humidity
44573;DHT22;31762;45.420;10.072;2022-07-10T00:00:46;24.40;99.50
44573;DHT22;31762;45.420;10.072;2022-07-10T00:05:48;24.00;99.90
44573;DHT22;31762;45.420;10.072;2022-07-10T00:10:50;23.90;99.90
44573;DHT22;31762;45.420;10.072;2022-07-10T00:15:52;24.20;99.90
44573;DHT22;31762;45.420;10.072;2022-07-10T00:20:54;23.70;99.90
44573;DHT22;31762;45.420;10.072;2022-07-10T00:25:55;24.00;99.90
44573;DHT22;31762;45.420;10.072;2022-07-10T00:30:57;23.90;99.90
44573;DHT22;31762;45.420;10.072;2022-07-10T00:35:59;23.80;99.90
44573;DHT22;31762;45.420;10.072;2022-07-10T00:41:01;23.80;99.90
44573;DHT22;31762;45.420;10.072;2022-07-10T00:46:03;23.90;99.90
44573;DHT22;31762;45.420;10.072;2022-07-10T00:51:05;24.00;99.90
44573;DHT22;31762;45.420;10.072;2022-07-10T00:56:07;24.10;99.90
44573;DHT22;31762;45.420;10.072;2022-07-10T01:01:09;23.80;99.90
44573;DHT22;31762;45.420;10.072;2022-07-10T01:06:11;23.70;99.90
44573;DHT22;31762;45.420;10.072;2022-07-10T01:11:14;23.50;99.90
44573;DHT22;31762;45.420;10.072;2022-07-10T01:16:17;23.40;99.90
44573;DHT22;31762;45.420;10.072;2022-07-10T01:26:26;23.70;99.90
44573;DHT22;31762;45.420;10.072;2022-07-10T01:31:28;23.20;99.90
44573;DHT22;31762;45.420;10.072;2022-07-10T01:36:31;23.00;99.90
44573;DHT22;31762;45.420;10.072;2022-07-10T01:41:33;23.30;99.90
44573;DHT22;31762;45.420;10.072;2022-07-10T01:46:35;23.00;99.90
44573;DHT22;31762;45.420;10.072;2022-07-10T01:51:43;23.40;99.90
44573;DHT22;31762;45.420;10.072;2022-07-10T01:56:45;23.70;99.90
44573;DHT22;31762;45.420;10.072;2022-07-10T02:01:47;23.60;99.90
44573;DHT22;31762;45.420;10.072;2022-07-10T02:06:49;22.70;99.90
44573;DHT22;31762;45.420;10.072;2022-07-10T02:11:51;22.20;99.90
44573;DHT22;31762;45.420;10.072;2022-07-10T02:16:53;23.00;99.90
44573;DHT22;31762;45.420;10.072;2022-07-10T02:21:55;23.40;99.90
44573;DHT22;31762;45.420;10.072;2022-07-10T02:26:57;23.00;99.90
44573;DHT22;31762;45.420;10.072;2022-07-10T02:31:58;22.70;99.90
44573;DHT22;31762;45.420;10.072;2022-07-10T02:37:00;23.00;99.90
44573;DHT22;31762;45.420;10.072;2022-07-10T02:42:03;22.90;99.90
44573;DHT22;31762;45.420;10.072;2022-07-10T02:47:04;22.50;99.90
44573;DHT22;31762;45.420;10.072;2022-07-10T02:52:07;22.10;99.90
44573;DHT22;31762;45.420;10.072;2022-07-10T02:57:08;21.90;99.90
44573;DHT22;31762;45.420;10.072;2022-07-10T03:02:10;22.00;99.90
44573;DHT22;31762;45.420;10.072;2022-07-10T03:07:12;22.20;99.90
44573;DHT22;31762;45.420;10.072;2022-07-10T03:12:14;22.00;99.90
44573;DHT22;31762;45.420;10.072;2022-07-10T03:17:15;22.50;99.90
44573;DHT22;31762;45.420;10.072;2022-07-10T03:22:17;22.80;99.90
44573;DHT22;31762;45.420;10.072;2022-07-10T03:27:19;22.50;99.90
44573;DHT22;31762;45.420;10.072;2022-07-10T03:32:21;22.30;99.90
44573;DHT22;31762;45.420;10.072;2022-07-10T03:37:22;22.50;99.90
44573;DHT22;31762;45.420;10.072;2022-07-10T03:42:24;22.90;99.90
44573;DHT22;31762;45.420;10.072;2022-07-10T03:47:27;22.70;99.90
44573;DHT22;31762;45.420;10.072;2022-07-10T03:52:28;22.50;99.90
44573;DHT22;31762;45.420;10.072;2022-07-10T03:57:30;22.40;99.90
44573;DHT22;31762;45.420;10.072;2022-07-10T04:02:32;22.60;99.90
44573;DHT22;31762;45.420;10.072;2022-07-10T04:07:35;22.70;99.90
44573;DHT22;31762;45.420;10.072;2022-07-10T04:12:36;22.70;99.90
44573;DHT22;31762;45.420;10.072;2022-07-10T04:17:38;22.60;99.90
44573;DHT22;31762;45.420;10.072;2022-07-10T04:22:40;22.40;99.90
44573;DHT22;31762;45.420;10.072;2022-07-10T04:27:42;22.50;99.90
44573;DHT22;31762;45.420;10.072;2022-07-10T04:32:44;22.90;99.90
44573;DHT22;31762;45.420;10.072;2022-07-10T04:37:45;22.90;99.90
44573;DHT22;31762;45.420;10.072;2022-07-10T04:42:47;22.70;99.90
44573;DHT22;31762;45.420;10.072;2022-07-10T04:47:49;22.80;99.90
44573;DHT22;31762;45.420;10.072;2022-07-10T04:52:51;23.00;99.90
44573;DHT22;31762;45.420;10.072;2022-07-10T04:57:52;23.10;99.90
44573;DHT22;31762;45.420;10.072;2022-07-10T05:02:54;23.30;99.90
44573;DHT22;31762;45.420;10.072;2022-07-10T05:07:56;23.00;99.90
44573;DHT22;31762;45.420;10.072;2022-07-10T05:12:58;23.00;99.90
44573;DHT22;31762;45.420;10.072;2022-07-10T05:18:00;23.20;99.90
44573;DHT22;31762;45.420;10.072;2022-07-10T05:23:01;23.30;99.90
44573;DHT22;31762;45.420;10.072;2022-07-10T05:28:04;23.40;99.90
44573;DHT22;31762;45.420;10.072;2022-07-10T05:33:06;23.70;99.90
44573;DHT22;31762;45.420;10.072;2022-07-10T05:38:08;23.70;99.90
44573;DHT22;31762;45.420;10.072;2022-07-10T05:43:10;23.80;99.90
44573;DHT22;31762;45.420;10.072;2022-07-10T05:48:11;24.10;99.90
44573;DHT22;31762;45.420;10.072;2022-07-10T05:53:13;24.20;99.90
44573;DHT22;31762;45.420;10.072;2022-07-10T05:58:18;24.40;99.90
44573;DHT22;31762;45.420;10.072;2022-07-10T06:03:20;24.60;99.90
44573;DHT22;31762;45.420;10.072;2022-07-10T06:08:21;24.50;99.90
44573;DHT22;31762;45.420;10.072;2022-07-10T06:13:23;24.60;99.90
44573;DHT22;31762;45.420;10.072;2022-07-10T06:18:25;24.60;99.90
44573;DHT22;31762;45.420;10.072;2022-07-10T06:23:27;24.90;99.90
44573;DHT22;31762;45.420;10.072;2022-07-10T06:28:29;25.10;99.90
44573;DHT22;31762;45.420;10.072;2022-07-10T06:33:30;25.40;99.90
44573;DHT22;31762;45.420;10.072;2022-07-10T06:38:33;25.50;99.90
44573;DHT22;31762;45.420;10.072;2022-07-10T06:43:34;25.50;99.90
44573;DHT22;31762;45.420;10.072;2022-07-10T06:48:36;25.70;99.90
44573;DHT22;31762;45.420;10.072;2022-07-10T06:53:38;25.80;99.90
44573;DHT22;31762;45.420;10.072;2022-07-10T06:58:40;25.90;99.90
44573;DHT22;31762;45.420;10.072;2022-07-10T07:03:42;26.10;99.90
44573;DHT22;31762;45.420;10.072;2022-07-10T07:08:44;26.30;99.90
44573;DHT22;31762;45.420;10.072;2022-07-10T07:13:46;26.50;99.90
44573;DHT22;31762;45.420;10.072;2022-07-10T07:18:48;26.60;99.90
44573;DHT22;31762;45.420;10.072;2022-07-10T07:23:49;27.00;99.90
44573;DHT22;31762;45.420;10.072;2022-07-10T07:28:51;26.80;99.50
44573;DHT22;31762;45.420;10.072;2022-07-10T07:33:53;27.10;99.70
44573;DHT22;31762;45.420;10.072;2022-07-10T07:38:55;27.20;97.70
44573;DHT22;31762;45.420;10.072;2022-07-10T07:43:56;27.20;96.00
44573;DHT22;31762;45.420;10.072;2022-07-10T07:48:58;27.30;98.00
44573;DHT22;31762;45.420;10.072;2022-07-10T07:54:00;27.60;95.10
44573;DHT22;31762;45.420;10.072;2022-07-10T07:59:02;27.60;95.50
44573;DHT22;31762;45.420;10.072;2022-07-10T08:04:03;27.90;95.60
44573;DHT22;31762;45.420;10.072;2022-07-10T08:09:10;28.00;95.40
44573;DHT22;31762;45.420;10.072;2022-07-10T08:14:13;28.10;97.00
44573;DHT22;31762;45.420;10.072;2022-07-10T08:19:15;28.50;98.20
44573;DHT22;31762;45.420;10.072;2022-07-10T08:24:16;28.30;94.10
44573;DHT22;31762;45.420;10.072;2022-07-10T08:29:18;28.60;92.40
44573;DHT22;31762;45.420;10.072;2022-07-10T08:34:20;28.80;93.80
44573;DHT22;31762;45.420;10.072;2022-07-10T08:39:21;28.80;94.20
44573;DHT22;31762;45.420;10.072;2022-07-10T08:44:23;28.90;93.40
44573;DHT22;31762;45.420;10.072;2022-07-10T08:49:27;29.10;92.60
44573;DHT22;31762;45.420;10.072;2022-07-10T08:54:31;29.40;91.60
44573;DHT22;31762;45.420;10.072;2022-07-10T08:59:33;29.00;91.50
44573;DHT22;31762;45.420;10.072;2022-07-10T09:04:34;29.10;91.30
44573;DHT22;31762;45.420;10.072;2022-07-10T09:09:56;29.50;91.10
44573;DHT22;31762;45.420;10.072;2022-07-10T09:15:15;29.80;91.40
44573;DHT22;31762;45.420;10.072;2022-07-10T09:20:30;29.40;91.80
44573;DHT22;31762;45.420;10.072;2022-07-10T09:25:32;29.70;92.20
44573;DHT22;31762;45.420;10.072;2022-07-10T09:30:35;29.80;93.10
44573;DHT22;31762;45.420;10.072;2022-07-10T09:35:37;30.10;92.20
44573;DHT22;31762;45.420;10.072;2022-07-10T09:40:54;30.20;91.70
44573;DHT22;31762;45.420;10.072;2022-07-10T09:45:56;30.60;93.00
44573;DHT22;31762;45.420;10.072;2022-07-10T09:50:58;30.10;92.40
44573;DHT22;31762;45.420;10.072;2022-07-10T09:56:01;30.10;91.30
44573;DHT22;31762;45.420;10.072;2022-07-10T10:01:05;30.80;90.60
44573;DHT22;31762;45.420;10.072;2022-07-10T10:06:16;31.20;89.80
44573;DHT22;31762;45.420;10.072;2022-07-10T10:11:20;30.90;90.60
44573;DHT22;31762;45.420;10.072;2022-07-10T10:16:22;31.00;90.00
44573;DHT22;31762;45.420;10.072;2022-07-10T10:21:27;31.20;89.60
44573;DHT22;31762;45.420;10.072;2022-07-10T10:26:29;31.30;88.20
44573;DHT22;31762;45.420;10.072;2022-07-10T10:31:32;31.30;90.10
44573;DHT22;31762;45.420;10.072;2022-07-10T10:41:40;31.50;89.70
44573;DHT22;31762;45.420;10.072;2022-07-10T10:46:55;31.80;90.00
44573;DHT22;31762;45.420;10.072;2022-07-10T10:57:16;31.20;85.10
44573;DHT22;31762;45.420;10.072;2022-07-10T11:02:31;31.70;87.50
44573;DHT22;31762;45.420;10.072;2022-07-10T11:07:52;31.70;87.80
44573;DHT22;31762;45.420;10.072;2022-07-10T11:13:01;31.80;88.60
44573;DHT22;31762;45.420;10.072;2022-07-10T11:18:08;32.50;91.50
44573;DHT22;31762;45.420;10.072;2022-07-10T11:33:54;32.10;88.90
44573;DHT22;31762;45.420;10.072;2022-07-10T11:38:58;32.80;86.40
44573;DHT22;31762;45.420;10.072;2022-07-10T11:44:01;33.20;84.80
44573;DHT22;31762;45.420;10.072;2022-07-10T11:49:05;32.20;84.40
44573;DHT22;31762;45.420;10.072;2022-07-10T11:54:09;32.50;87.00
44573;DHT22;31762;45.420;10.072;2022-07-10T11:59:12;32.80;83.60
44573;DHT22;31762;45.420;10.072;2022-07-10T12:04:16;32.80;85.20
44573;DHT22;31762;45.420;10.072;2022-07-10T12:09:20;33.90;85.30
44573;DHT22;31762;45.420;10.072;2022-07-10T12:14:22;33.70;83.70
44573;DHT22;31762;45.420;10.072;2022-07-10T12:19:36;32.90;80.80
44573;DHT22;31762;45.420;10.072;2022-07-10T12:24:38;33.10;81.50
44573;DHT22;31762;45.420;10.072;2022-07-10T12:29:40;33.10;77.60
44573;DHT22;31762;45.420;10.072;2022-07-10T12:34:42;32.90;77.20
44573;DHT22;31762;45.420;10.072;2022-07-10T12:39:53;33.70;79.40
44573;DHT22;31762;45.420;10.072;2022-07-10T12:50:14;34.20;76.90
44573;DHT22;31762;45.420;10.072;2022-07-10T12:55:18;34.40;79.00
44573;DHT22;31762;45.420;10.072;2022-07-10T13:10:27;34.70;77.00
44573;DHT22;31762;45.420;10.072;2022-07-10T13:15:29;34.30;75.30
44573;DHT22;31762;45.420;10.072;2022-07-10T13:20:31;34.80;74.70
44573;DHT22;31762;45.420;10.072;2022-07-10T13:25:33;35.40;75.10
44573;DHT22;31762;45.420;10.072;2022-07-10T13:30:35;34.90;74.50
44573;DHT22;31762;45.420;10.072;2022-07-10T13:35:37;34.30;74.90
44573;DHT22;31762;45.420;10.072;2022-07-10T13:40:39;34.10;74.90
44573;DHT22;31762;45.420;10.072;2022-07-10T13:45:40;34.40;75.90
44573;DHT22;31762;45.420;10.072;2022-07-10T13:50:43;34.10;76.50
44573;DHT22;31762;45.420;10.072;2022-07-10T13:55:46;34.30;74.70
44573;DHT22;31762;45.420;10.072;2022-07-10T14:00:48;35.00;75.10
44573;DHT22;31762;45.420;10.072;2022-07-10T14:05:49;35.20;73.40
44573;DHT22;31762;45.420;10.072;2022-07-10T14:10:51;34.20;72.30
44573;DHT22;31762;45.420;10.072;2022-07-10T14:15:53;34.40;73.60
44573;DHT22;31762;45.420;10.072;2022-07-10T14:20:55;33.90;72.70
44573;DHT22;31762;45.420;10.072;2022-07-10T14:25:57;34.40;74.60
44573;DHT22;31762;45.420;10.072;2022-07-10T14:30:58;34.60;69.40
44573;DHT22;31762;45.420;10.072;2022-07-10T14:36:01;34.40;71.20
44573;DHT22;31762;45.420;10.072;2022-07-10T14:41:03;34.70;70.40
44573;DHT22;31762;45.420;10.072;2022-07-10T14:46:05;34.30;70.60
44573;DHT22;31762;45.420;10.072;2022-07-10T14:51:07;34.70;70.50
44573;DHT22;31762;45.420;10.072;2022-07-10T14:56:09;34.60;66.90
44573;DHT22;31762;45.420;10.072;2022-07-10T15:01:11;34.80;69.00
44573;DHT22;31762;45.420;10.072;2022-07-10T15:06:13;34.50;70.20
44573;DHT22;31762;45.420;10.072;2022-07-10T15:11:15;34.80;67.50
44573;DHT22;31762;45.420;10.072;2022-07-10T15:16:17;34.10;69.10
44573;DHT22;31762;45.420;10.072;2022-07-10T15:21:19;35.30;70.50
44573;DHT22;31762;45.420;10.072;2022-07-10T15:26:21;34.10;68.40
44573;DHT22;31762;45.420;10.072;2022-07-10T15:31:23;34.50;66.50
44573;DHT22;31762;45.420;10.072;2022-07-10T15:36:25;34.20;66.60
44573;DHT22;31762;45.420;10.072;2022-07-10T15:41:27;34.40;67.30
44573;DHT22;31762;45.420;10.072;2022-07-10T15:46:29;34.20;65.70
44573;DHT22;31762;45.420;10.072;2022-07-10T15:51:31;34.80;66.30
44573;DHT22;31762;45.420;10.072;2022-07-10T15:56:32;34.40;66.30
44573;DHT22;31762;45.420;10.072;2022-07-10T16:01:39;34.60;68.20
44573;DHT22;31762;45.420;10.072;2022-07-10T16:06:41;34.10;64.10
44573;DHT22;31762;45.420;10.072;2022-07-10T16:11:44;33.60;64.10
44573;DHT22;31762;45.420;10.072;2022-07-10T16:16:45;33.70;64.60
44573;DHT22;31762;45.420;10.072;2022-07-10T16:21:47;33.00;64.00
44573;DHT22;31762;45.420;10.072;2022-07-10T16:26:49;32.70;65.70
44573;DHT22;31762;45.420;10.072;2022-07-10T16:31:52;32.00;67.10
44573;DHT22;31762;45.420;10.072;2022-07-10T16:36:53;32.10;66.70
44573;DHT22;31762;45.420;10.072;2022-07-10T16:41:56;31.70;68.00
44573;DHT22;31762;45.420;10.072;2022-07-10T16:46:57;31.90;69.30
44573;DHT22;31762;45.420;10.072;2022-07-10T16:51:59;31.90;67.90
44573;DHT22;31762;45.420;10.072;2022-07-10T16:57:01;32.10;68.20
44573;DHT22;31762;45.420;10.072;2022-07-10T17:02:03;31.90;68.80
44573;DHT22;31762;45.420;10.072;2022-07-10T17:07:06;32.00;69.10
44573;DHT22;31762;45.420;10.072;2022-07-10T17:12:08;31.70;67.90
44573;DHT22;31762;45.420;10.072;2022-07-10T17:17:10;31.40;68.20
44573;DHT22;31762;45.420;10.072;2022-07-10T17:22:12;31.40;69.00
44573;DHT22;31762;45.420;10.072;2022-07-10T17:27:14;31.30;70.30
44573;DHT22;31762;45.420;10.072;2022-07-10T17:32:17;31.30;69.20
44573;DHT22;31762;45.420;10.072;2022-07-10T17:37:21;31.20;70.90
44573;DHT22;31762;45.420;10.072;2022-07-10T17:42:22;31.30;70.90
44573;DHT22;31762;45.420;10.072;2022-07-10T17:47:24;31.40;70.60
44573;DHT22;31762;45.420;10.072;2022-07-10T17:52:26;31.40;68.90
44573;DHT22;31762;45.420;10.072;2022-07-10T17:57:28;31.40;69.40
44573;DHT22;31762;45.420;10.072;2022-07-10T18:02:29;31.30;70.00
44573;DHT22;31762;45.420;10.072;2022-07-10T18:07:31;31.30;70.60
44573;DHT22;31762;45.420;10.072;2022-07-10T18:12:33;31.20;68.60
44573;DHT22;31762;45.420;10.072;2022-07-10T18:17:35;31.20;69.50
44573;DHT22;31762;45.420;10.072;2022-07-10T18:22:36;31.00;70.20
44573;DHT22;31762;45.420;10.072;2022-07-10T18:27:38;31.00;71.10
44573;DHT22;31762;45.420;10.072;2022-07-10T18:32:40;30.90;70.00
44573;DHT22;31762;45.420;10.072;2022-07-10T18:37:42;30.80;70.30
44573;DHT22;31762;45.420;10.072;2022-07-10T18:42:44;30.70;73.20
44573;DHT22;31762;45.420;10.072;2022-07-10T18:47:45;30.60;75.50
44573;DHT22;31762;45.420;10.072;2022-07-10T18:52:47;30.50;75.70
44573;DHT22;31762;45.420;10.072;2022-07-10T18:57:49;30.40;77.60
44573;DHT22;31762;45.420;10.072;2022-07-10T19:02:51;30.20;80.60
44573;DHT22;31762;45.420;10.072;2022-07-10T19:07:52;30.10;82.30
44573;DHT22;31762;45.420;10.072;2022-07-10T19:12:54;30.00;84.40
44573;DHT22;31762;45.420;10.072;2022-07-10T19:17:56;30.00;86.10
44573;DHT22;31762;45.420;10.072;2022-07-10T19:22:58;29.90;86.30
44573;DHT22;31762;45.420;10.072;2022-07-10T19:28:00;29.70;88.90
44573;DHT22;31762;45.420;10.072;2022-07-10T19:33:03;29.60;88.90
44573;DHT22;31762;45.420;10.072;2022-07-10T19:38:05;29.40;90.40
44573;DHT22;31762;45.420;10.072;2022-07-10T19:43:07;29.20;90.40
44573;DHT22;31762;45.420;10.072;2022-07-10T19:48:09;29.30;90.80
44573;DHT22;31762;45.420;10.072;2022-07-10T19:53:11;29.00;91.20
44573;DHT22;31762;45.420;10.072;2022-07-10T19:58:12;28.80;93.30
44573;DHT22;31762;45.420;10.072;2022-07-10T20:03:14;28.60;92.50
44573;DHT22;31762;45.420;10.072;2022-07-10T20:08:16;28.70;93.50
44573;DHT22;31762;45.420;10.072;2022-07-10T20:13:18;28.60;92.70
44573;DHT22;31762;45.420;10.072;2022-07-10T20:18:20;28.80;92.30
44573;DHT22;31762;45.420;10.072;2022-07-10T20:23:22;28.90;92.10
44573;DHT22;31762;45.420;10.072;2022-07-10T20:28:24;28.90;92.30
44573;DHT22;31762;45.420;10.072;2022-07-10T20:33:26;28.40;93.50
44573;DHT22;31762;45.420;10.072;2022-07-10T20:38:28;27.90;94.50
44573;DHT22;31762;45.420;10.072;2022-07-10T20:43:29;27.90;94.90
44573;DHT22;31762;45.420;10.072;2022-07-10T20:48:31;27.80;95.40
44573;DHT22;31762;45.420;10.072;2022-07-10T20:53:33;27.60;95.30
44573;DHT22;31762;45.420;10.072;2022-07-10T20:58:35;27.70;94.80
44573;DHT22;31762;45.420;10.072;2022-07-10T21:03:36;28.10;94.40
44573;DHT22;31762;45.420;10.072;2022-07-10T21:08:38;28.20;93.90
44573;DHT22;31762;45.420;10.072;2022-07-10T21:13:40;28.10;93.50
44573;DHT22;31762;45.420;10.072;2022-07-10T21:18:43;28.00;93.90
44573;DHT22;31762;45.420;10.072;2022-07-10T21:23:45;27.90;95.20
44573;DHT22;31762;45.420;10.072;2022-07-10T21:28:47;27.80;95.40
44573;DHT22;31762;45.420;10.072;2022-07-10T21:33:49;27.70;95.80
44573;DHT22;31762;45.420;10.072;2022-07-10T21:38:51;27.60;96.40
44573;DHT22;31762;45.420;10.072;2022-07-10T21:43:59;27.60;97.10
44573;DHT22;31762;45.420;10.072;2022-07-10T21:49:01;27.50;97.60
44573;DHT22;31762;45.420;10.072;2022-07-10T21:54:03;27.40;98.40
44573;DHT22;31762;45.420;10.072;2022-07-10T21:59:04;27.40;99.00
44573;DHT22;31762;45.420;10.072;2022-07-10T22:04:06;27.20;99.90
44573;DHT22;31762;45.420;10.072;2022-07-10T22:09:08;27.00;99.90
44573;DHT22;31762;45.420;10.072;2022-07-10T22:14:10;27.20;99.90
44573;DHT22;31762;45.420;10.072;2022-07-10T22:19:12;26.80;99.90
44573;DHT22;31762;45.420;10.072;2022-07-10T22:24:13;26.90;99.90
44573;DHT22;31762;45.420;10.072;2022-07-10T22:29:15;26.70;99.90
44573;DHT22;31762;45.420;10.072;2022-07-10T22:34:17;26.70;99.90
44573;DHT22;31762;45.420;10.072;2022-07-10T22:39:19;26.70;99.90
44573;DHT22;31762;45.420;10.072;2022-07-10T22:44:20;26.60;99.90
44573;DHT22;31762;45.420;10.072;2022-07-10T22:49:22;26.70;99.90
44573;DHT22;31762;45.420;10.072;2022-07-10T22:54:24;26.70;99.90
44573;DHT22;31762;45.420;10.072;2022-07-10T22:59:26;26.70;99.90
44573;DHT22;31762;45.420;10.072;2022-07-10T23:04:27;26.60;99.90
44573;DHT22;31762;45.420;10.072;2022-07-10T23:09:29;26.50;99.90
44573;DHT22;31762;45.420;10.072;2022-07-10T23:14:31;26.50;99.90
44573;DHT22;31762;45.420;10.072;2022-07-10T23:19:33;26.30;99.90
44573;DHT22;31762;45.420;10.072;2022-07-10T23:24:34;26.50;99.80
44573;DHT22;31762;45.420;10.072;2022-07-10T23:29:37;26.40;99.80
44573;DHT22;31762;45.420;10.072;2022-07-10T23:34:39;26.40;99.80
44573;DHT22;31762;45.420;10.072;2022-07-10T23:39:41;26.40;99.30
44573;DHT22;31762;45.420;10.072;2022-07-10T23:44:43;26.30;99.30
44573;DHT22;31762;45.420;10.072;2022-07-10T23:49:45;26.20;99.30
44573;DHT22;31762;45.420;10.072;2022-07-10T23:54:47;26.20;99.10
44573;DHT22;31762;45.420;10.072;2022-07-10T23:59:48;26.00;99.10
